createdAt,value
2023-12-09T00:02:12.842Z,2.77
2023-12-09T00:04:41.178Z,2.81
2023-12-09T00:07:10.524Z,2.82
2023-12-09T00:09:37.913Z,2.82
2023-12-09T00:12:05.719Z,2.81
2023-12-09T00:14:32.651Z,2.77
2023-12-09T00:16:59.924Z,2.75
2023-12-09T00:19:26.931Z,2.77
2023-12-09T00:21:53.978Z,2.79
2023-12-09T00:24:21.133Z,2.79
2023-12-09T00:26:48.246Z,2.81
2023-12-09T00:29:15.321Z,2.81
2023-12-09T00:31:43.275Z,2.82
2023-12-09T00:34:10.617Z,2.82
2023-12-09T00:36:37.721Z,2.82
2023-12-09T00:39:04.890Z,2.83
2023-12-09T00:41:31.939Z,2.78
2023-12-09T00:43:58.850Z,2.77
2023-12-09T00:46:25.863Z,2.74
2023-12-09T00:48:52.882Z,2.87
2023-12-09T00:51:20.675Z,2.81
2023-12-09T00:53:47.635Z,2.71
2023-12-09T00:56:14.830Z,2.69
2023-12-09T00:58:59.816Z,2.63
2023-12-09T01:01:26.951Z,2.52
2023-12-09T01:03:54.120Z,2.44
2023-12-09T01:06:21.169Z,2.40
2023-12-09T01:08:48.164Z,2.42
2023-12-09T01:11:15.137Z,2.40
2023-12-09T01:13:42.676Z,2.43
2023-12-09T01:16:10.469Z,2.43
2023-12-09T01:18:37.385Z,2.28
2023-12-09T01:21:04.861Z,2.29
2023-12-09T01:23:31.855Z,2.30
2023-12-09T01:25:58.911Z,2.25
2023-12-09T01:28:25.879Z,2.10
2023-12-09T01:30:52.799Z,2.04
2023-12-09T01:33:19.831Z,1.97
2023-12-09T01:35:47.059Z,1.96
2023-12-09T01:38:13.997Z,1.94
2023-12-09T01:40:41.446Z,1.95
2023-12-09T01:43:11.909Z,1.93
2023-12-09T01:45:39.122Z,1.94
2023-12-09T01:48:06.728Z,1.99
2023-12-09T01:50:33.925Z,1.97
2023-12-09T01:53:01.301Z,1.93
2023-12-09T01:55:30.127Z,1.94
2023-12-09T01:57:57.247Z,1.97
2023-12-09T02:00:24.755Z,1.99
2023-12-09T02:02:52.205Z,2.00
2023-12-09T02:05:19.539Z,2.01
2023-12-09T02:07:46.492Z,2.16
2023-12-09T02:10:13.525Z,2.02
2023-12-09T02:13:24.457Z,2.01
2023-12-09T02:16:01.890Z,1.94
2023-12-09T02:18:31.536Z,1.99
2023-12-09T02:20:58.776Z,1.98
2023-12-09T02:23:25.703Z,1.92
2023-12-09T02:25:57.774Z,1.94
2023-12-09T02:28:28.137Z,1.91
2023-12-09T02:31:10.618Z,1.95
2023-12-09T02:33:38.616Z,1.96
2023-12-09T02:36:09.152Z,1.91
2023-12-09T02:38:38.977Z,1.90
2023-12-09T02:41:08.283Z,1.89
2023-12-09T02:43:35.287Z,1.91
2023-12-09T02:46:02.478Z,1.88
2023-12-09T02:48:29.631Z,1.89
2023-12-09T02:50:56.914Z,1.86
2023-12-09T02:53:23.902Z,1.80
2023-12-09T02:55:50.790Z,1.77
2023-12-09T02:58:17.766Z,1.75
2023-12-09T03:00:45.309Z,1.73
2023-12-09T03:03:12.519Z,1.69
2023-12-09T03:05:39.554Z,1.69
2023-12-09T03:08:06.549Z,1.68
2023-12-09T03:10:33.559Z,1.68
2023-12-09T03:13:01.242Z,1.64
2023-12-09T03:15:28.563Z,1.62
2023-12-09T03:17:55.729Z,1.59
2023-12-09T03:20:22.899Z,1.56
2023-12-09T03:22:49.863Z,1.58
2023-12-09T03:25:16.843Z,1.56
2023-12-09T03:27:43.737Z,1.51
2023-12-09T03:30:11.293Z,1.50
2023-12-09T03:32:40.164Z,1.49
2023-12-09T03:35:08.656Z,1.51
2023-12-09T03:37:35.615Z,1.46
2023-12-09T03:40:04.387Z,1.46
2023-12-09T03:42:32.210Z,1.46
2023-12-09T03:44:59.184Z,1.49
2023-12-09T03:47:29.485Z,1.47
2023-12-09T03:49:57.035Z,1.49
2023-12-09T03:52:25.095Z,1.46
2023-12-09T03:54:52.146Z,1.43
2023-12-09T03:57:19.575Z,1.41
2023-12-09T03:59:46.576Z,1.40
2023-12-09T04:02:13.479Z,1.36
2023-12-09T04:04:41.522Z,1.38
2023-12-09T04:07:09.439Z,1.40
2023-12-09T04:09:36.497Z,1.41
2023-12-09T04:12:03.908Z,1.37
2023-12-09T04:14:30.969Z,1.36
2023-12-09T04:16:58.254Z,1.41
2023-12-09T04:19:25.322Z,1.38
2023-12-09T04:21:53.194Z,1.29
2023-12-09T04:24:20.454Z,1.23
2023-12-09T04:26:47.604Z,1.24
2023-12-09T04:29:14.544Z,1.19
2023-12-09T04:31:44.258Z,1.25
2023-12-09T04:34:11.694Z,1.23
2023-12-09T04:36:39.003Z,1.25
2023-12-09T04:39:07.268Z,1.26
2023-12-09T04:41:34.451Z,1.29
2023-12-09T04:44:01.305Z,1.33
2023-12-09T04:46:29.760Z,1.40
2023-12-09T04:48:58.002Z,1.45
2023-12-09T04:51:25.294Z,1.55
2023-12-09T04:53:52.318Z,1.56
2023-12-09T04:56:20.228Z,1.56
2023-12-09T04:58:47.278Z,1.62
2023-12-09T05:01:14.275Z,1.65
2023-12-09T05:03:41.352Z,1.66
2023-12-09T05:06:09.993Z,1.69
2023-12-09T05:08:37.009Z,1.71
2023-12-09T05:11:04.069Z,1.73
2023-12-09T05:13:30.967Z,1.73
2023-12-09T05:15:58.057Z,1.78
2023-12-09T05:18:25.119Z,1.86
2023-12-09T05:20:52.652Z,1.83
2023-12-09T05:23:19.807Z,1.86
2023-12-09T05:25:47.412Z,1.82
2023-12-09T05:28:14.370Z,1.85
2023-12-09T05:30:43.226Z,1.93
2023-12-09T05:33:11.084Z,1.97
2023-12-09T05:35:38.110Z,1.97
2023-12-09T05:38:05.174Z,1.93
2023-12-09T05:40:35.782Z,1.93
2023-12-09T05:43:03.196Z,1.97
2023-12-09T05:45:30.297Z,2.00
2023-12-09T05:47:58.083Z,2.00
2023-12-09T05:50:25.264Z,2.03
2023-12-09T05:52:52.184Z,2.05
2023-12-09T05:55:19.137Z,2.08
2023-12-09T05:57:46.064Z,2.10
2023-12-09T06:00:13.849Z,2.11
2023-12-09T06:02:42.443Z,2.13
2023-12-09T06:05:10.436Z,2.16
2023-12-09T06:07:37.426Z,2.28
2023-12-09T06:10:06.625Z,2.31
2023-12-09T06:12:33.959Z,2.16
2023-12-09T06:15:01.560Z,2.16
2023-12-09T06:17:28.709Z,2.17
2023-12-09T06:19:55.879Z,2.16
2023-12-09T06:22:22.950Z,2.16
2023-12-09T06:24:50.021Z,2.18
2023-12-09T06:27:17.382Z,2.18
2023-12-09T06:29:47.172Z,2.17
2023-12-09T06:32:14.615Z,2.21
2023-12-09T06:34:41.994Z,2.26
2023-12-09T06:37:09.650Z,2.25
2023-12-09T06:39:36.757Z,2.22
2023-12-09T06:42:04.304Z,2.25
2023-12-09T06:44:31.591Z,2.23
2023-12-09T06:46:58.510Z,2.26
2023-12-09T06:49:25.637Z,2.33
2023-12-09T06:51:52.877Z,2.37
2023-12-09T06:54:22.414Z,2.36
2023-12-09T06:56:49.455Z,2.46
2023-12-09T06:59:18.969Z,2.52
2023-12-09T07:01:46.036Z,2.51
2023-12-09T07:04:17.830Z,2.51
2023-12-09T07:06:44.879Z,2.53
2023-12-09T07:09:12.182Z,2.57
2023-12-09T07:11:39.302Z,2.63
2023-12-09T07:14:06.564Z,2.69
2023-12-09T07:16:34.589Z,2.77
2023-12-09T07:19:02.927Z,2.77
2023-12-09T07:21:30.825Z,2.84
2023-12-09T07:23:58.652Z,2.88
2023-12-09T07:26:25.961Z,2.85
2023-12-09T07:28:55.350Z,2.86
2023-12-09T07:31:23.443Z,2.89
2023-12-09T07:33:52.419Z,2.90
2023-12-09T07:36:19.643Z,2.92
2023-12-09T07:38:46.872Z,2.92
2023-12-09T07:41:13.952Z,2.97
2023-12-09T07:43:41.400Z,3.03
2023-12-09T07:46:08.380Z,3.04
2023-12-09T07:48:35.596Z,3.12
2023-12-09T07:51:02.746Z,3.17
2023-12-09T07:53:30.281Z,3.20
2023-12-09T07:55:58.767Z,3.27
2023-12-09T07:58:25.715Z,3.35
2023-12-09T08:00:53.209Z,3.38
2023-12-09T08:03:20.963Z,3.44
2023-12-09T08:05:48.184Z,3.44
2023-12-09T08:08:15.261Z,3.49
2023-12-09T08:10:42.734Z,3.53
2023-12-09T08:13:10.352Z,3.57
2023-12-09T08:15:37.537Z,3.60
2023-12-09T08:18:05.219Z,3.74
2023-12-09T08:20:32.281Z,3.69
2023-12-09T08:22:59.558Z,3.74
2023-12-09T08:25:26.487Z,3.73
2023-12-09T08:27:53.393Z,3.66
2023-12-09T08:30:20.437Z,3.68
2023-12-09T08:32:47.450Z,3.79
2023-12-09T08:35:14.548Z,3.78
2023-12-09T08:37:41.631Z,3.84
2023-12-09T08:40:13.557Z,3.90
2023-12-09T08:42:42.876Z,3.94
2023-12-09T08:45:11.894Z,4.03
2023-12-09T08:47:42.701Z,4.14
2023-12-09T08:50:21.925Z,4.12
2023-12-09T08:52:55.238Z,4.06
2023-12-09T08:55:22.894Z,4.14
2023-12-09T08:57:50.582Z,4.22
2023-12-09T09:00:22.123Z,4.25
2023-12-09T09:02:50.007Z,4.22
2023-12-09T09:05:17.161Z,4.22
2023-12-09T09:07:47.210Z,4.30
2023-12-09T09:10:14.987Z,4.38
2023-12-09T09:12:42.289Z,4.42
2023-12-09T09:15:10.581Z,4.51
2023-12-09T09:17:37.995Z,4.59
2023-12-09T09:20:06.987Z,4.75
2023-12-09T09:22:35.188Z,4.55
2023-12-09T09:25:03.027Z,4.52
2023-12-09T09:27:30.203Z,4.54
2023-12-09T09:29:57.389Z,4.63
2023-12-09T09:32:24.856Z,4.81
2023-12-09T09:34:52.118Z,4.83
2023-12-09T09:37:19.824Z,4.83
2023-12-09T09:39:47.084Z,4.93
2023-12-09T09:42:44.146Z,4.98
2023-12-09T09:45:32.135Z,4.99
2023-12-09T09:48:06.061Z,5.12
2023-12-09T09:50:41.706Z,5.17
2023-12-09T09:53:10.461Z,4.96
2023-12-09T09:55:42.826Z,5.05
2023-12-09T09:58:11.924Z,5.02
2023-12-09T10:00:40.219Z,4.99
2023-12-09T10:03:08.025Z,5.02
2023-12-09T10:05:35.106Z,5.08
2023-12-09T10:08:02.511Z,5.15
2023-12-09T10:10:31.529Z,5.23
2023-12-09T10:12:58.694Z,5.26
2023-12-09T10:15:25.941Z,5.26
2023-12-09T10:17:53.390Z,5.24
2023-12-09T10:20:20.548Z,5.26
2023-12-09T10:22:48.309Z,5.27
2023-12-09T10:25:22.618Z,5.33
2023-12-09T10:27:50.094Z,5.40
2023-12-09T10:30:19.798Z,5.48
2023-12-09T10:32:48.631Z,5.54
2023-12-09T10:35:18.186Z,5.48
2023-12-09T10:37:45.375Z,5.47
2023-12-09T10:40:13.263Z,5.51
2023-12-09T10:42:42.072Z,5.53
2023-12-09T10:45:09.646Z,5.37
2023-12-09T10:47:36.918Z,5.33
2023-12-09T10:50:05.100Z,5.33
2023-12-09T10:52:34.230Z,5.29
2023-12-09T10:55:03.015Z,5.31
2023-12-09T10:57:34.008Z,5.23
2023-12-09T11:00:02.850Z,5.25
2023-12-09T11:02:31.228Z,5.31
2023-12-09T11:04:58.908Z,5.25
2023-12-09T11:07:27.189Z,5.18
2023-12-09T11:09:55.873Z,5.18
2023-12-09T11:12:29.984Z,5.22
2023-12-09T11:15:09.164Z,5.22
2023-12-09T11:17:38.653Z,5.25
2023-12-09T11:20:21.066Z,5.19
2023-12-09T11:22:48.624Z,5.24
2023-12-09T11:25:27.138Z,5.30
2023-12-09T11:27:54.979Z,5.35
2023-12-09T11:30:43.380Z,5.43
2023-12-09T11:33:11.243Z,5.45
2023-12-09T11:35:39.000Z,5.43
2023-12-09T11:38:08.910Z,5.43
2023-12-09T11:40:36.102Z,5.44
2023-12-09T11:43:04.903Z,5.43
2023-12-09T11:45:32.097Z,5.46
2023-12-09T11:48:00.862Z,5.45
2023-12-09T11:50:29.047Z,5.43
2023-12-09T11:52:56.677Z,5.38
2023-12-09T11:55:23.821Z,5.39
2023-12-09T11:57:51.068Z,5.44
2023-12-09T12:00:18.583Z,5.48
2023-12-09T12:02:45.635Z,5.48
2023-12-09T12:05:13.215Z,5.44
2023-12-09T12:07:40.778Z,5.46
2023-12-09T12:10:09.240Z,5.48
2023-12-09T12:12:37.535Z,5.47
2023-12-09T12:15:06.436Z,5.50
2023-12-09T12:17:41.335Z,5.50
2023-12-09T12:20:11.849Z,5.52
2023-12-09T12:22:40.793Z,5.52
2023-12-09T12:25:09.849Z,5.55
2023-12-09T12:27:37.949Z,5.56
2023-12-09T12:30:07.783Z,5.56
2023-12-09T12:32:39.573Z,5.57
2023-12-09T12:35:07.399Z,5.57
2023-12-09T12:37:34.861Z,5.57
2023-12-09T12:40:02.199Z,5.53
2023-12-09T12:42:30.738Z,5.53
2023-12-09T12:44:58.172Z,5.49
2023-12-09T12:47:25.203Z,5.54
2023-12-09T12:49:52.536Z,5.59
2023-12-09T12:52:19.566Z,5.53
2023-12-09T12:54:46.664Z,5.49
2023-12-09T12:57:14.006Z,5.59
2023-12-09T12:59:41.189Z,5.56
2023-12-09T13:02:08.192Z,5.44
2023-12-09T13:04:35.238Z,5.36
2023-12-09T13:07:02.521Z,5.37
2023-12-09T13:09:29.587Z,5.35
2023-12-09T13:11:56.622Z,5.35
2023-12-09T13:14:23.687Z,5.36
2023-12-09T13:16:50.759Z,5.35
2023-12-09T13:19:17.931Z,5.29
2023-12-09T13:21:53.340Z,5.28
2023-12-09T13:24:21.098Z,5.17
2023-12-09T13:26:48.351Z,5.07
2023-12-09T13:29:15.464Z,4.95
2023-12-09T13:31:42.513Z,4.86
2023-12-09T13:34:09.655Z,4.80
2023-12-09T13:36:41.039Z,4.75
2023-12-09T13:39:13.039Z,4.70
2023-12-09T13:41:41.327Z,4.72
2023-12-09T13:44:08.493Z,4.82
2023-12-09T13:46:35.633Z,4.89
2023-12-09T13:49:02.916Z,4.89
2023-12-09T13:51:30.194Z,5.04
2023-12-09T13:53:58.733Z,4.98
2023-12-09T13:56:25.857Z,4.91
2023-12-09T13:58:52.959Z,4.77
2023-12-09T14:01:20.285Z,4.72
2023-12-09T14:03:47.427Z,4.70
2023-12-09T14:06:14.608Z,4.72
2023-12-09T14:08:42.587Z,4.74
2023-12-09T14:11:10.602Z,4.80
2023-12-09T14:13:37.596Z,4.82
2023-12-09T14:16:05.262Z,4.61
2023-12-09T14:18:32.500Z,4.49
2023-12-09T14:20:59.784Z,4.51
2023-12-09T14:23:29.192Z,4.45
2023-12-09T14:25:56.256Z,4.47
2023-12-09T14:28:23.411Z,4.50
2023-12-09T14:30:50.528Z,4.48
2023-12-09T14:33:17.771Z,4.45
2023-12-09T14:35:44.934Z,4.39
2023-12-09T14:38:12.125Z,4.34
2023-12-09T14:40:39.505Z,4.28
2023-12-09T14:43:11.832Z,4.35
2023-12-09T14:45:39.172Z,4.27
2023-12-09T14:48:08.278Z,4.21
2023-12-09T14:50:36.352Z,4.18
2023-12-09T14:53:03.572Z,4.15
2023-12-09T14:55:30.774Z,4.15
2023-12-09T14:57:57.841Z,4.14
2023-12-09T15:00:25.074Z,4.14
2023-12-09T15:02:52.446Z,4.13
2023-12-09T15:05:19.565Z,4.23
2023-12-09T15:07:47.028Z,4.15
2023-12-09T15:10:14.646Z,4.06
2023-12-09T15:12:41.694Z,4.06
2023-12-09T15:15:09.881Z,4.06
2023-12-09T15:17:38.531Z,3.96
2023-12-09T15:20:10.426Z,3.90
2023-12-09T15:22:38.237Z,3.92
2023-12-09T15:25:05.947Z,3.88
2023-12-09T15:27:33.367Z,3.89
2023-12-09T15:30:00.501Z,3.87
2023-12-09T15:32:28.213Z,3.87
2023-12-09T15:34:55.598Z,3.84
2023-12-09T15:37:22.840Z,3.84
2023-12-09T15:39:50.070Z,3.84
2023-12-09T15:42:17.675Z,3.85
2023-12-09T15:44:44.742Z,3.84
2023-12-09T15:47:13.071Z,3.84
2023-12-09T15:49:41.383Z,3.82
2023-12-09T15:52:08.489Z,3.81
2023-12-09T15:54:35.668Z,3.78
2023-12-09T15:57:03.787Z,3.85
2023-12-09T15:59:31.325Z,3.84
2023-12-09T16:01:58.374Z,3.73
2023-12-09T16:04:26.450Z,3.67
2023-12-09T16:06:53.498Z,3.60
2023-12-09T16:09:20.562Z,3.58
2023-12-09T16:11:49.005Z,3.56
2023-12-09T16:14:16.097Z,3.55
2023-12-09T16:16:45.072Z,3.56
2023-12-09T16:19:12.565Z,3.52
2023-12-09T16:21:40.063Z,3.51
2023-12-09T16:24:07.637Z,3.55
2023-12-09T16:26:35.143Z,3.60
2023-12-09T16:29:02.324Z,3.67
2023-12-09T16:31:29.376Z,3.73
2023-12-09T16:33:56.691Z,3.73
2023-12-09T16:36:24.082Z,3.69
2023-12-09T16:38:51.232Z,3.69
2023-12-09T16:41:18.595Z,3.71
2023-12-09T16:43:45.911Z,3.70
2023-12-09T16:46:13.693Z,3.73
2023-12-09T16:48:41.381Z,3.73
2023-12-09T16:51:09.195Z,3.70
2023-12-09T16:53:36.236Z,3.67
2023-12-09T16:56:03.297Z,3.66
2023-12-09T16:58:30.491Z,3.59
2023-12-09T17:00:57.591Z,3.56
2023-12-09T17:03:25.131Z,3.53
2023-12-09T17:05:53.371Z,3.51
2023-12-09T17:08:20.606Z,3.52
2023-12-09T17:10:47.959Z,3.53
2023-12-09T17:13:15.026Z,3.53
2023-12-09T17:15:42.175Z,3.55
2023-12-09T17:18:09.699Z,3.53
2023-12-09T17:20:36.808Z,3.50
2023-12-09T17:23:04.004Z,3.47
2023-12-09T17:25:31.383Z,3.47
2023-12-09T17:27:58.433Z,3.42
2023-12-09T17:30:25.944Z,3.37
2023-12-09T17:32:53.165Z,3.32
2023-12-09T17:35:20.604Z,3.28
2023-12-09T17:37:47.765Z,3.26
2023-12-09T17:40:16.098Z,3.28
2023-12-09T17:42:43.236Z,3.35
2023-12-09T17:45:10.901Z,3.45
2023-12-09T17:47:38.088Z,3.25
2023-12-09T17:50:06.092Z,3.18
2023-12-09T17:52:35.556Z,3.11
2023-12-09T17:55:05.319Z,3.06
2023-12-09T17:57:32.928Z,3.02
2023-12-09T18:00:00.192Z,3.13
2023-12-09T18:02:27.607Z,3.06
2023-12-09T18:04:55.001Z,2.98
2023-12-09T18:07:22.094Z,2.97
2023-12-09T18:09:50.294Z,2.97
2023-12-09T18:12:17.399Z,2.96
2023-12-09T18:14:44.694Z,2.94
2023-12-09T18:17:12.036Z,3.01
2023-12-09T18:19:39.113Z,2.99
2023-12-09T18:22:06.540Z,2.98
2023-12-09T18:24:33.782Z,3.00
2023-12-09T18:27:01.603Z,3.10
2023-12-09T18:29:29.182Z,3.15
2023-12-09T18:31:56.282Z,3.23
2023-12-09T18:34:23.469Z,3.17
2023-12-09T18:36:50.762Z,3.07
2023-12-09T18:39:21.012Z,3.11
2023-12-09T18:41:48.183Z,3.08
2023-12-09T18:44:15.265Z,2.92
2023-12-09T18:46:42.360Z,2.87
2023-12-09T18:49:10.243Z,2.88
2023-12-09T18:51:37.688Z,2.90
2023-12-09T18:54:05.525Z,2.89
2023-12-09T18:56:36.508Z,2.92
2023-12-09T18:59:04.102Z,2.96
2023-12-09T19:01:31.613Z,3.00
2023-12-09T19:04:01.748Z,3.00
2023-12-09T19:06:31.286Z,2.92
2023-12-09T19:08:59.737Z,2.88
2023-12-09T19:11:26.875Z,2.87
2023-12-09T19:13:53.904Z,2.87
2023-12-09T19:16:21.048Z,2.91
2023-12-09T19:18:48.716Z,2.95
2023-12-09T19:21:15.966Z,2.94
2023-12-09T19:23:43.087Z,2.94
2023-12-09T19:26:10.484Z,2.92
2023-12-09T19:28:38.036Z,2.93
2023-12-09T19:31:05.507Z,2.94
2023-12-09T19:33:32.993Z,2.95
2023-12-09T19:36:00.357Z,2.89
2023-12-09T19:38:27.671Z,2.80
2023-12-09T19:40:54.679Z,2.73
2023-12-09T19:43:22.232Z,2.69
2023-12-09T19:45:49.446Z,2.65
2023-12-09T19:48:17.548Z,2.62
2023-12-09T19:50:45.799Z,2.63
2023-12-09T19:53:13.055Z,2.64
2023-12-09T19:55:40.108Z,2.65
2023-12-09T19:58:08.765Z,2.69
2023-12-09T20:00:35.973Z,2.71
2023-12-09T20:03:03.281Z,2.75
2023-12-09T20:05:30.268Z,2.84
2023-12-09T20:07:57.538Z,2.91
2023-12-09T20:10:24.626Z,2.97
2023-12-09T20:12:52.132Z,3.01
2023-12-09T20:15:19.316Z,3.03
2023-12-09T20:17:47.024Z,3.07
2023-12-09T20:20:14.172Z,3.09
2023-12-09T20:22:41.276Z,3.13
2023-12-09T20:25:08.846Z,3.16
2023-12-09T20:27:36.440Z,3.16
2023-12-09T20:30:03.936Z,3.19
2023-12-09T20:32:31.202Z,3.26
2023-12-09T20:34:58.761Z,3.26
2023-12-09T20:37:25.797Z,3.11
2023-12-09T20:39:58.410Z,3.05
2023-12-09T20:42:25.635Z,3.05
2023-12-09T20:44:53.457Z,3.08
2023-12-09T20:47:20.438Z,3.09
2023-12-09T20:49:47.684Z,3.05
2023-12-09T20:52:14.708Z,3.04
2023-12-09T20:54:47.920Z,3.09
2023-12-09T20:57:15.272Z,3.11
2023-12-09T20:59:45.425Z,3.17
2023-12-09T21:02:12.485Z,3.18
2023-12-09T21:04:44.939Z,3.20
2023-12-09T21:07:12.366Z,3.21
2023-12-09T21:09:41.036Z,3.19
2023-12-09T21:12:09.056Z,3.21
2023-12-09T21:14:36.128Z,3.23
2023-12-09T21:17:04.065Z,3.20
2023-12-09T21:19:35.369Z,3.17
2023-12-09T21:22:04.155Z,3.16
2023-12-09T21:24:31.366Z,3.16
2023-12-09T21:26:58.400Z,3.14
2023-12-09T21:29:25.358Z,3.14
2023-12-09T21:31:52.408Z,3.19
2023-12-09T21:34:19.616Z,3.19
2023-12-09T21:36:46.959Z,3.21
2023-12-09T21:39:14.370Z,3.23
2023-12-09T21:41:41.395Z,3.24
2023-12-09T21:44:09.321Z,3.23
2023-12-09T21:46:36.336Z,3.26
2023-12-09T21:49:03.558Z,3.26
2023-12-09T21:51:30.667Z,3.28
2023-12-09T21:53:57.640Z,3.30
2023-12-09T21:56:26.107Z,3.32
2023-12-09T21:58:53.810Z,3.35
2023-12-09T22:01:21.621Z,3.36
2023-12-09T22:03:49.977Z,3.32
2023-12-09T22:06:17.303Z,3.32
2023-12-09T22:08:44.757Z,3.30
2023-12-09T22:11:12.821Z,3.32
2023-12-09T22:13:40.882Z,3.34
2023-12-09T22:16:08.589Z,3.30
2023-12-09T22:18:35.825Z,3.29
2023-12-09T22:21:03.204Z,3.29
2023-12-09T22:23:30.263Z,3.26
2023-12-09T22:25:57.361Z,3.25
2023-12-09T22:28:24.463Z,3.26
2023-12-09T22:30:51.518Z,3.26
2023-12-09T22:33:18.931Z,3.28
2023-12-09T22:35:46.755Z,3.28
2023-12-09T22:38:13.939Z,3.29
2023-12-09T22:40:41.289Z,3.29
2023-12-09T22:43:08.457Z,3.32
2023-12-09T22:45:35.674Z,3.33
2023-12-09T22:48:03.701Z,3.35
2023-12-09T22:50:32.249Z,3.34
2023-12-09T22:53:00.297Z,3.38
2023-12-09T22:55:30.198Z,3.35
2023-12-09T22:57:57.371Z,3.22
2023-12-09T23:00:34.104Z,3.12
2023-12-09T23:03:04.382Z,3.06
2023-12-09T23:05:32.208Z,3.03
2023-12-09T23:07:59.553Z,2.94
2023-12-09T23:10:26.670Z,2.90
2023-12-09T23:12:53.772Z,2.88
2023-12-09T23:15:22.197Z,2.87
2023-12-09T23:17:49.426Z,2.90
2023-12-09T23:20:17.073Z,2.94
2023-12-09T23:22:44.333Z,2.98
2023-12-09T23:25:11.367Z,2.98
2023-12-09T23:27:38.490Z,2.96
2023-12-09T23:30:06.269Z,3.00
2023-12-09T23:32:33.653Z,3.04
2023-12-09T23:35:00.813Z,3.05
2023-12-09T23:37:27.826Z,3.04
2023-12-09T23:39:54.864Z,3.03
2023-12-09T23:42:21.992Z,3.04
2023-12-09T23:44:49.115Z,3.09
2023-12-09T23:47:16.186Z,3.09
2023-12-09T23:49:43.484Z,3.09
2023-12-09T23:52:10.594Z,3.07
2023-12-09T23:54:38.818Z,3.04
2023-12-09T23:57:05.928Z,2.99
2023-12-09T23:59:33.233Z,2.98
